Main page
METAR-TAF:

METAR-TAF

Airports :

Tahiti, French Polynesia

Fa'a'ā International Airport

latitude: 17-33S, longitude: 149-37W, elevation: 2 m

Current weather observation

The report was made 42 minutes ago, at 15:00 UTC
Wind 5 kt from the East, varying between East/Northeast and Southeast
Temperature 25°C
Humidity 83%
Pressure 1009 hPa
Visibility 10 km or more

METAR: NTAA 231500Z AUTO 09005KT 060V130 9999 SCT062/// 25/22 Q1009

Time: 05:42 (15:42 UTC)

Forecast

The report was made 4 hours and 42 minutes ago, at 11:00 UTC
Forecast valid from 23 at 12 UTC to 24 at 18 UTC
Wind 5 kt from variable directions
Visibility 10 km or more
Few clouds at a height of 2300 ft
Scattered clouds at a height of 13000 ft

TAF: NTAA 231100Z 2312/2418 VRB05KT 9999 FEW023 SCT130

Weather observations and forecasts of more than 4000 airports (METAR and TAF reports).

The available stations are represented by yellow and red dots on the map.

Hover mouse over dot to see the name of the station.

Then click to see weather observations and forecasts.

To change the map : click on the green buttons with a black cross to zoom in, on the green button with a dash to zoom out, or on the green arrows for adjacent maps.


METAR-TAF: